createdAt,value
2022-10-30T00:00:09.187Z,79.70
2022-10-30T00:00:19.174Z,78.60
2022-10-30T00:00:29.173Z,85.70
2022-10-30T00:00:39.217Z,86.30
2022-10-30T00:00:49.158Z,79.10
2022-10-30T00:00:59.170Z,73.50
2022-10-30T00:01:09.162Z,70.40
2022-10-30T00:01:19.230Z,80.20
2022-10-30T00:01:29.341Z,78.50
2022-10-30T00:01:39.215Z,85.70
2022-10-30T00:01:49.188Z,83.40
2022-10-30T00:01:59.394Z,81.50
2022-10-30T00:02:09.405Z,71.60
2022-10-30T00:02:19.349Z,60.50
2022-10-30T00:02:29.353Z,65.00
2022-10-30T00:02:40.047Z,69.40
2022-10-30T00:02:49.229Z,73.80
2022-10-30T00:02:59.563Z,70.90
2022-10-30T00:03:09.226Z,77.30
2022-10-30T00:03:19.219Z,77.80
2022-10-30T00:03:29.174Z,73.50
2022-10-30T00:03:39.148Z,59.20
2022-10-30T00:03:49.148Z,55.80
2022-10-30T00:04:00.034Z,54.30
2022-10-30T00:04:09.176Z,63.10
2022-10-30T00:04:19.298Z,68.20
2022-10-30T00:04:29.181Z,72.30
2022-10-30T00:04:39.178Z,69.50
2022-10-30T00:04:49.156Z,65.20
2022-10-30T00:04:59.194Z,64.30
2022-10-30T00:05:12.018Z,56.90
2022-10-30T00:05:19.162Z,67.50
2022-10-30T00:05:29.150Z,63.10
2022-10-30T00:05:39.144Z,71.30
2022-10-30T00:05:49.156Z,69.00
2022-10-30T00:05:59.142Z,65.70
2022-10-30T00:06:10.113Z,67.80
2022-10-30T00:06:19.141Z,67.60
2022-10-30T00:06:29.152Z,76.30
2022-10-30T00:06:39.137Z,72.30
2022-10-30T00:06:49.168Z,61.70
2022-10-30T00:06:59.130Z,59.90
2022-10-30T00:07:09.134Z,58.40
2022-10-30T00:07:19.129Z,70.60
2022-10-30T00:07:29.163Z,66.90
2022-10-30T00:07:39.160Z,61.20
2022-10-30T00:07:49.134Z,62.60
2022-10-30T00:07:59.433Z,62.20
2022-10-30T00:08:09.136Z,65.60
2022-10-30T00:08:20.001Z,55.00
2022-10-30T00:08:30.027Z,51.20
2022-10-30T00:08:39.137Z,51.50
2022-10-30T00:08:49.131Z,60.90
2022-10-30T00:08:59.156Z,64.80
2022-10-30T00:09:09.143Z,74.30
2022-10-30T00:09:19.131Z,69.90
2022-10-30T00:09:29.210Z,71.30
2022-10-30T00:09:39.123Z,65.80
2022-10-30T00:09:49.183Z,56.30
2022-10-30T00:09:59.187Z,60.90
2022-10-30T00:10:09.117Z,59.80
2022-10-30T00:10:19.139Z,78.60
2022-10-30T00:10:29.119Z,69.90
2022-10-30T00:10:39.997Z,70.30
2022-10-30T00:10:49.133Z,58.50
2022-10-30T00:10:59.126Z,61.80
2022-10-30T00:11:09.197Z,60.80
2022-10-30T00:11:20.023Z,66.60
2022-10-30T00:11:29.229Z,72.10
2022-10-30T00:11:39.153Z,73.10
2022-10-30T00:11:49.116Z,64.70
2022-10-30T00:11:59.120Z,59.80
2022-10-30T00:12:16.100Z,64.00
2022-10-30T00:12:20.016Z,70.60
2022-10-30T00:12:29.203Z,68.20
2022-10-30T00:12:39.128Z,58.90
2022-10-30T00:12:49.104Z,49.90
2022-10-30T00:12:59.139Z,48.80
2022-10-30T00:13:09.334Z,50.80
2022-10-30T00:13:19.124Z,51.30
2022-10-30T00:13:29.102Z,55.90
2022-10-30T00:13:39.112Z,60.30
2022-10-30T00:13:49.137Z,67.90
2022-10-30T00:13:59.173Z,65.70
2022-10-30T00:14:09.203Z,58.70
2022-10-30T00:14:19.121Z,55.60
2022-10-30T00:14:30.020Z,52.80
2022-10-30T00:14:39.207Z,58.90
2022-10-30T00:14:49.139Z,55.10
2022-10-30T00:14:59.148Z,49.00
2022-10-30T00:15:09.134Z,40.00
2022-10-30T00:15:19.123Z,44.90
2022-10-30T00:15:29.118Z,61.90
2022-10-30T00:15:39.186Z,64.20
2022-10-30T00:15:49.114Z,66.50
2022-10-30T00:15:59.173Z,60.50
2022-10-30T00:16:10.012Z,71.70
2022-10-30T00:16:19.096Z,71.90
2022-10-30T00:16:29.117Z,68.50
2022-10-30T00:16:39.204Z,66.30
2022-10-30T00:16:49.088Z,66.80
2022-10-30T00:16:59.084Z,84.30
2022-10-30T00:17:09.118Z,75.80
2022-10-30T00:17:19.092Z,71.20
2022-10-30T00:17:29.146Z,58.00
2022-10-30T00:17:39.131Z,62.90
2022-10-30T00:17:49.138Z,61.60
2022-10-30T00:17:59.555Z,56.50
2022-10-30T00:18:09.104Z,58.40
2022-10-30T00:18:19.088Z,64.00
2022-10-30T00:18:32.073Z,72.70
2022-10-30T00:18:40.001Z,75.60
2022-10-30T00:18:49.109Z,61.60
2022-10-30T00:18:59.086Z,60.60
2022-10-30T00:19:09.086Z,50.10
2022-10-30T00:19:19.211Z,57.80
2022-10-30T00:19:29.101Z,56.80
2022-10-30T00:19:39.104Z,60.40
2022-10-30T00:19:49.156Z,62.00
2022-10-30T00:19:59.108Z,68.40
2022-10-30T00:20:09.081Z,67.70
2022-10-30T00:20:19.102Z,66.50
2022-10-30T00:20:29.112Z,56.80
2022-10-30T00:20:40.122Z,61.70
2022-10-30T00:20:52.139Z,55.80
2022-10-30T00:20:59.128Z,54.70
2022-10-30T00:21:09.075Z,58.80
2022-10-30T00:21:19.069Z,64.60
2022-10-30T00:21:29.095Z,72.50
2022-10-30T00:21:39.073Z,65.40
2022-10-30T00:21:49.083Z,66.80
2022-10-30T00:22:16.631Z,0.00
2022-10-30T00:22:25.965Z,55.70
2022-10-30T00:22:35.881Z,65.80
2022-10-30T00:22:45.884Z,59.50
2022-10-30T00:22:56.255Z,62.20
2022-10-30T00:23:05.882Z,52.80
2022-10-30T00:23:15.900Z,61.60
2022-10-30T00:23:25.878Z,60.20
2022-10-30T00:23:35.868Z,75.10
2022-10-30T00:23:45.926Z,59.90
2022-10-30T00:23:55.996Z,60.70
2022-10-30T00:24:05.914Z,49.60
2022-10-30T00:24:15.864Z,58.80
2022-10-30T00:24:26.630Z,60.20
2022-10-30T00:24:35.879Z,61.10
2022-10-30T00:24:45.880Z,61.60
2022-10-30T00:24:55.955Z,62.40
2022-10-30T00:25:05.887Z,53.90
2022-10-30T00:25:15.867Z,54.00
2022-10-30T00:25:25.870Z,59.60
2022-10-30T00:25:35.903Z,69.40
2022-10-30T00:25:45.888Z,73.50
2022-10-30T00:25:55.864Z,62.40
2022-10-30T00:26:05.889Z,53.90
2022-10-30T00:26:15.867Z,45.20
2022-10-30T00:26:25.896Z,45.90
2022-10-30T00:26:35.931Z,50.40
2022-10-30T00:26:45.904Z,52.30
2022-10-30T00:26:55.889Z,60.00
2022-10-30T00:27:05.877Z,66.70
2022-10-30T00:27:15.866Z,73.30
2022-10-30T00:27:25.862Z,67.60
2022-10-30T00:27:35.869Z,64.10
2022-10-30T00:27:45.878Z,60.40
2022-10-30T00:27:55.854Z,66.70
2022-10-30T00:28:06.014Z,55.90
2022-10-30T00:28:15.852Z,60.10
2022-10-30T00:28:26.637Z,54.90
2022-10-30T00:28:36.628Z,49.90
2022-10-30T00:28:45.875Z,55.40
2022-10-30T00:28:55.868Z,59.50
2022-10-30T00:29:05.855Z,70.80
2022-10-30T00:29:15.847Z,60.10
2022-10-30T00:29:25.848Z,66.60
2022-10-30T00:29:35.843Z,63.70
2022-10-30T00:29:45.850Z,64.40
2022-10-30T00:29:55.841Z,56.10
2022-10-30T00:30:05.954Z,64.40
2022-10-30T00:30:15.855Z,58.90
2022-10-30T00:30:25.855Z,61.70
2022-10-30T00:30:35.902Z,52.70
2022-10-30T00:30:45.918Z,60.70
2022-10-30T00:30:55.848Z,59.40
2022-10-30T00:31:06.667Z,67.20
2022-10-30T00:31:15.867Z,59.10
2022-10-30T00:31:25.849Z,58.60
2022-10-30T00:31:35.837Z,65.70
2022-10-30T00:31:45.852Z,71.10
2022-10-30T00:31:55.832Z,69.00
2022-10-30T00:32:05.862Z,58.50
2022-10-30T00:32:15.940Z,61.10
2022-10-30T00:32:25.835Z,57.90
2022-10-30T00:32:35.862Z,60.30
2022-10-30T00:32:46.680Z,53.40
2022-10-30T00:32:56.221Z,54.40
2022-10-30T00:33:06.657Z,56.60
2022-10-30T00:33:15.834Z,57.60
2022-10-30T00:33:25.830Z,52.80
2022-10-30T00:33:35.848Z,42.00
2022-10-30T00:33:45.841Z,49.70
2022-10-30T00:33:55.823Z,60.40
2022-10-30T00:34:06.051Z,60.50
2022-10-30T00:34:15.834Z,53.50
2022-10-30T00:34:25.825Z,50.10
2022-10-30T00:34:38.634Z,51.10
2022-10-30T00:34:45.824Z,53.70
2022-10-30T00:34:55.931Z,52.30
2022-10-30T00:35:05.843Z,53.60
2022-10-30T00:35:15.870Z,46.30
2022-10-30T00:35:25.825Z,47.00
2022-10-30T00:35:35.887Z,44.90
2022-10-30T00:35:55.835Z,52.20
2022-10-30T00:36:05.826Z,62.40
2022-10-30T00:36:15.850Z,61.50
2022-10-30T00:36:25.820Z,66.50
2022-10-30T00:36:35.965Z,63.20
2022-10-30T00:36:45.823Z,60.70
2022-10-30T00:36:56.685Z,62.00
2022-10-30T00:37:05.824Z,59.70
2022-10-30T00:37:15.831Z,61.40
2022-10-30T00:37:25.853Z,52.30
2022-10-30T00:37:35.835Z,47.10
2022-10-30T00:37:45.807Z,46.90
2022-10-30T00:37:56.094Z,48.00
2022-10-30T00:38:05.829Z,48.40
2022-10-30T00:38:15.823Z,43.60
2022-10-30T00:38:25.818Z,50.90
2022-10-30T00:38:35.896Z,58.70
2022-10-30T00:38:45.817Z,65.50
2022-10-30T00:38:55.853Z,62.50
2022-10-30T00:39:05.935Z,58.90
2022-10-30T00:39:15.859Z,54.50
2022-10-30T00:39:26.629Z,53.90
2022-10-30T00:39:35.808Z,54.30
2022-10-30T00:39:45.814Z,54.10
2022-10-30T00:39:55.810Z,48.60
2022-10-30T00:40:05.806Z,52.10
2022-10-30T00:40:18.644Z,52.70
2022-10-30T00:40:25.852Z,56.90
2022-10-30T00:40:35.803Z,56.50
2022-10-30T00:40:45.844Z,54.30
2022-10-30T00:40:55.809Z,55.00
2022-10-30T00:41:05.946Z,51.10
2022-10-30T00:41:15.812Z,52.60
2022-10-30T00:41:25.800Z,57.40
2022-10-30T00:41:35.804Z,60.10
2022-10-30T00:41:45.788Z,61.90
2022-10-30T00:41:55.799Z,64.10
2022-10-30T00:42:05.798Z,57.40
2022-10-30T00:42:15.794Z,59.80
2022-10-30T00:42:25.827Z,53.10
2022-10-30T00:42:35.799Z,56.10
2022-10-30T00:42:46.681Z,52.40
2022-10-30T00:42:55.805Z,44.00
2022-10-30T00:43:05.823Z,49.70
2022-10-30T00:43:15.900Z,52.30
2022-10-30T00:43:25.987Z,67.70
2022-10-30T00:43:35.793Z,64.00
2022-10-30T00:43:45.798Z,57.70
2022-10-30T00:43:55.795Z,56.00
2022-10-30T00:44:05.788Z,57.70
2022-10-30T00:44:15.783Z,58.70
2022-10-30T00:44:25.793Z,59.90
2022-10-30T00:44:35.780Z,53.50
2022-10-30T00:44:45.781Z,60.00
2022-10-30T00:44:55.799Z,60.50
2022-10-30T00:45:05.794Z,64.50
2022-10-30T00:45:16.639Z,57.60
2022-10-30T00:45:25.810Z,52.50
2022-10-30T00:45:35.816Z,51.70
2022-10-30T00:45:45.779Z,54.40
2022-10-30T00:45:55.782Z,44.80
2022-10-30T00:46:05.784Z,50.00
2022-10-30T00:46:15.774Z,49.50
2022-10-30T00:46:25.804Z,63.10
2022-10-30T00:46:35.786Z,61.00
2022-10-30T00:46:45.779Z,55.80
2022-10-30T00:46:55.802Z,52.30
2022-10-30T00:47:05.779Z,53.10
2022-10-30T00:47:15.825Z,59.70
2022-10-30T00:47:25.886Z,60.60
2022-10-30T00:47:35.788Z,58.20
2022-10-30T00:47:45.899Z,55.30
2022-10-30T00:47:56.334Z,45.80
2022-10-30T00:48:05.770Z,49.30
2022-10-30T00:48:15.796Z,56.40
2022-10-30T00:48:25.760Z,65.20
2022-10-30T00:48:35.776Z,61.40
2022-10-30T00:48:45.770Z,63.00
2022-10-30T00:48:55.788Z,59.20
2022-10-30T00:49:05.776Z,58.30
2022-10-30T00:49:15.812Z,46.90
2022-10-30T00:49:25.810Z,50.00
2022-10-30T00:49:35.763Z,49.20
2022-10-30T00:49:45.769Z,55.60
2022-10-30T00:49:55.766Z,57.10
2022-10-30T00:50:05.772Z,59.60
2022-10-30T00:50:15.866Z,65.60
2022-10-30T00:50:35.790Z,68.80
2022-10-30T00:50:45.812Z,65.50
2022-10-30T00:50:56.669Z,60.80
2022-10-30T00:51:05.763Z,50.60
2022-10-30T00:51:15.770Z,44.00
2022-10-30T00:51:25.750Z,60.10
2022-10-30T00:51:35.865Z,65.50
2022-10-30T00:51:45.759Z,58.90
2022-10-30T00:51:55.762Z,50.80
2022-10-30T00:52:05.753Z,47.80
2022-10-30T00:52:15.762Z,49.90
2022-10-30T00:52:25.743Z,45.80
2022-10-30T00:52:35.781Z,48.30
2022-10-30T00:52:45.800Z,62.00
2022-10-30T00:52:57.042Z,59.90
2022-10-30T00:53:05.774Z,56.80
2022-10-30T00:53:15.750Z,42.90
2022-10-30T00:53:25.758Z,42.90
2022-10-30T00:53:36.673Z,53.70
2022-10-30T00:53:45.737Z,60.60
2022-10-30T00:53:55.768Z,62.80
2022-10-30T00:54:05.738Z,49.10
2022-10-30T00:54:15.745Z,47.80
2022-10-30T00:54:25.762Z,44.00
2022-10-30T00:54:35.744Z,45.10
2022-10-30T00:54:45.801Z,44.20
2022-10-30T00:54:56.652Z,47.40
2022-10-30T00:55:05.805Z,45.30
2022-10-30T00:55:15.741Z,53.50
2022-10-30T00:55:25.765Z,58.70
2022-10-30T00:55:35.764Z,59.10
2022-10-30T00:55:45.734Z,48.30
2022-10-30T00:55:55.785Z,39.00
2022-10-30T00:56:05.751Z,41.40
2022-10-30T00:56:15.743Z,49.70
2022-10-30T00:56:25.759Z,50.10
2022-10-30T00:56:35.740Z,56.10
2022-10-30T00:56:45.742Z,44.60
2022-10-30T00:56:55.729Z,45.30
2022-10-30T00:57:05.725Z,40.40
2022-10-30T00:57:15.733Z,43.80
2022-10-30T00:57:26.696Z,49.00
2022-10-30T00:57:35.726Z,53.70
2022-10-30T00:57:45.755Z,59.50
2022-10-30T00:57:55.725Z,53.90
2022-10-30T00:58:05.723Z,46.50
2022-10-30T00:58:15.726Z,48.10
2022-10-30T00:58:25.723Z,57.10
2022-10-30T00:58:35.726Z,58.90
2022-10-30T00:58:45.762Z,62.60
2022-10-30T00:58:56.644Z,50.50
2022-10-30T00:59:05.717Z,63.10
2022-10-30T00:59:15.764Z,53.50
2022-10-30T00:59:25.724Z,53.70
2022-10-30T00:59:35.848Z,48.20
2022-10-30T00:59:45.728Z,55.60
2022-10-30T00:59:55.816Z,58.10
2022-10-30T01:00:05.720Z,51.10
2022-10-30T01:00:15.720Z,48.70
2022-10-30T01:00:25.709Z,47.30
2022-10-30T01:00:35.774Z,50.80
2022-10-30T01:00:45.711Z,48.60
2022-10-30T01:00:55.779Z,49.70
2022-10-30T01:01:05.956Z,49.20
2022-10-30T01:01:15.927Z,49.70
2022-10-30T01:01:25.943Z,44.90
2022-10-30T01:01:38.831Z,41.60
2022-10-30T01:01:45.778Z,38.40
2022-10-30T01:01:55.967Z,42.30
2022-10-30T01:02:05.842Z,39.10
2022-10-30T01:02:15.839Z,51.50
2022-10-30T01:02:25.946Z,55.50
2022-10-30T01:02:35.801Z,55.80
2022-10-30T01:02:45.928Z,40.90
2022-10-30T01:02:56.135Z,36.80
2022-10-30T01:03:05.760Z,44.60
2022-10-30T01:03:15.722Z,54.90
2022-10-30T01:03:25.716Z,52.50
2022-10-30T01:03:35.705Z,49.60
2022-10-30T01:03:45.697Z,50.30
2022-10-30T01:03:56.747Z,51.80
2022-10-30T01:04:06.644Z,56.50
2022-10-30T01:04:15.697Z,50.70
2022-10-30T01:04:29.130Z,60.50
2022-10-30T01:04:35.831Z,62.00
2022-10-30T01:04:46.637Z,56.60
2022-10-30T01:04:55.778Z,48.40
2022-10-30T01:05:05.753Z,43.40
2022-10-30T01:05:15.738Z,36.60
2022-10-30T01:05:25.736Z,42.30
2022-10-30T01:05:35.788Z,46.70
2022-10-30T01:05:45.706Z,56.50
2022-10-30T01:05:55.709Z,46.50
2022-10-30T01:06:06.800Z,39.80
2022-10-30T01:06:16.637Z,39.10
2022-10-30T01:06:25.702Z,45.40
2022-10-30T01:06:35.690Z,48.80
2022-10-30T01:06:45.723Z,45.30
2022-10-30T01:06:55.687Z,39.90
2022-10-30T01:07:05.698Z,34.50
2022-10-30T01:07:15.705Z,38.00
2022-10-30T01:07:25.724Z,40.60
2022-10-30T01:07:35.677Z,39.30
2022-10-30T01:07:45.725Z,36.40
2022-10-30T01:07:56.136Z,44.10
2022-10-30T01:08:05.682Z,49.50
2022-10-30T01:08:15.793Z,56.80
2022-10-30T01:08:25.767Z,57.50
2022-10-30T01:08:36.722Z,58.10
2022-10-30T01:08:46.732Z,55.80
2022-10-30T01:08:58.981Z,54.30
2022-10-30T01:09:05.805Z,52.50
2022-10-30T01:09:15.812Z,58.00
2022-10-30T01:09:25.680Z,54.10
2022-10-30T01:09:35.719Z,56.60
2022-10-30T01:09:45.674Z,48.60
2022-10-30T01:09:55.672Z,36.20
2022-10-30T01:10:05.695Z,32.40
2022-10-30T01:10:16.755Z,31.80
2022-10-30T01:10:25.799Z,33.00
2022-10-30T01:10:35.669Z,39.80
2022-10-30T01:10:45.679Z,43.00
2022-10-30T01:10:55.666Z,49.40
2022-10-30T01:11:06.656Z,44.60
2022-10-30T01:11:15.667Z,60.10
2022-10-30T01:11:25.821Z,49.50
2022-10-30T01:11:35.670Z,62.30
2022-10-30T01:11:45.682Z,47.80
2022-10-30T01:11:55.673Z,60.60
2022-10-30T01:12:05.706Z,49.90
2022-10-30T01:12:15.688Z,53.00
2022-10-30T01:12:26.645Z,42.70
2022-10-30T01:12:35.663Z,40.00
2022-10-30T01:12:45.692Z,42.70
2022-10-30T01:12:55.658Z,42.20
2022-10-30T01:13:05.657Z,41.80
2022-10-30T01:13:15.731Z,42.40
2022-10-30T01:13:25.660Z,42.70
2022-10-30T01:13:35.667Z,38.90
2022-10-30T01:13:45.662Z,36.50
2022-10-30T01:13:55.686Z,35.00
2022-10-30T01:14:05.657Z,43.10
2022-10-30T01:14:15.665Z,37.30
2022-10-30T01:14:25.706Z,38.60
2022-10-30T01:14:36.647Z,37.70
2022-10-30T01:14:45.664Z,46.30
2022-10-30T01:14:55.668Z,58.70
2022-10-30T01:15:05.709Z,56.70
2022-10-30T01:15:15.656Z,56.70
2022-10-30T01:15:25.696Z,44.50
2022-10-30T01:15:35.661Z,41.90
2022-10-30T01:15:45.664Z,43.90
2022-10-30T01:15:55.686Z,47.70
2022-10-30T01:16:05.703Z,53.10
2022-10-30T01:16:15.651Z,45.80
2022-10-30T01:16:26.214Z,37.90
2022-10-30T01:16:35.745Z,40.40
2022-10-30T01:16:45.682Z,44.40
2022-10-30T01:16:55.712Z,50.70
2022-10-30T01:17:05.643Z,42.80
2022-10-30T01:17:15.678Z,37.20
2022-10-30T01:17:25.729Z,34.90
2022-10-30T01:17:35.650Z,42.40
2022-10-30T01:17:45.652Z,42.00
2022-10-30T01:17:56.135Z,47.00
2022-10-30T01:18:05.655Z,48.00
2022-10-30T01:18:15.718Z,54.70
2022-10-30T01:18:25.649Z,55.10
2022-10-30T01:18:35.680Z,49.90
2022-10-30T01:18:45.637Z,41.40
2022-10-30T01:18:55.627Z,45.80
2022-10-30T01:19:05.646Z,42.50
2022-10-30T01:19:15.687Z,61.90
2022-10-30T01:19:25.629Z,47.80
2022-10-30T01:19:35.635Z,54.40
2022-10-30T01:19:45.635Z,35.80
2022-10-30T01:19:55.748Z,41.10
2022-10-30T01:20:05.645Z,39.40
2022-10-30T01:20:15.703Z,49.80
2022-10-30T01:20:25.640Z,61.50
2022-10-30T01:20:35.664Z,63.90
2022-10-30T01:20:45.641Z,58.60
2022-10-30T01:20:55.631Z,60.50
2022-10-30T01:21:05.677Z,47.90
2022-10-30T01:21:15.622Z,46.10
2022-10-30T01:21:25.633Z,39.20
2022-10-30T01:21:35.619Z,44.80
2022-10-30T01:21:45.675Z,50.20
2022-10-30T01:21:55.629Z,42.90
2022-10-30T01:22:06.176Z,45.80
2022-10-30T01:22:16.150Z,44.50
2022-10-30T01:22:25.622Z,50.10
2022-10-30T01:22:35.625Z,48.60
2022-10-30T01:22:45.650Z,50.60
2022-10-30T01:22:56.089Z,55.60
2022-10-30T01:23:05.621Z,56.80
2022-10-30T01:23:15.616Z,53.30
2022-10-30T01:23:25.646Z,44.20
2022-10-30T01:23:35.633Z,45.50
2022-10-30T01:23:45.614Z,47.70
2022-10-30T01:23:55.653Z,56.50
2022-10-30T01:24:05.616Z,65.30
2022-10-30T01:24:15.634Z,62.80
2022-10-30T01:24:25.657Z,59.60
2022-10-30T01:24:35.609Z,47.60
2022-10-30T01:24:46.179Z,39.90
2022-10-30T01:24:55.602Z,37.00
2022-10-30T01:25:05.613Z,33.90
2022-10-30T01:25:15.633Z,43.80
2022-10-30T01:25:25.951Z,50.60
2022-10-30T01:25:35.597Z,62.40
2022-10-30T01:25:45.635Z,58.40
2022-10-30T01:25:55.609Z,55.60
2022-10-30T01:26:05.615Z,47.40
2022-10-30T01:26:16.150Z,43.00
2022-10-30T01:26:25.609Z,40.20
2022-10-30T01:26:35.606Z,42.40
2022-10-30T01:26:45.636Z,43.70
2022-10-30T01:26:55.691Z,41.40
2022-10-30T01:27:05.646Z,45.90
2022-10-30T01:27:15.614Z,71.80
2022-10-30T01:27:26.158Z,69.00
2022-10-30T01:27:35.611Z,61.50
2022-10-30T01:27:45.593Z,34.60
2022-10-30T01:28:10.156Z,44.20
2022-10-30T01:28:10.470Z,46.70
2022-10-30T01:28:20.475Z,42.00
2022-10-30T01:28:30.492Z,43.90
2022-10-30T01:28:41.163Z,44.80
2022-10-30T01:28:50.465Z,52.30
2022-10-30T01:29:00.471Z,49.00
2022-10-30T01:29:10.470Z,48.40
2022-10-30T01:29:21.175Z,39.20
2022-10-30T01:29:30.476Z,34.70
2022-10-30T01:29:40.472Z,33.20
2022-10-30T01:29:50.473Z,41.10
2022-10-30T01:30:00.652Z,45.60
2022-10-30T01:30:10.476Z,54.80
2022-10-30T01:30:20.478Z,45.70
2022-10-30T01:30:31.157Z,54.20
2022-10-30T01:30:40.510Z,48.90
2022-10-30T01:30:50.582Z,46.30
2022-10-30T01:31:00.457Z,50.10
2022-10-30T01:31:10.460Z,44.40
2022-10-30T01:31:20.462Z,51.30
2022-10-30T01:31:30.458Z,46.70
2022-10-30T01:31:40.464Z,51.70
2022-10-30T01:31:50.453Z,50.80
2022-10-30T01:32:00.515Z,44.60
2022-10-30T01:32:17.322Z,46.40
2022-10-30T01:32:20.482Z,47.40
2022-10-30T01:32:30.459Z,50.80
2022-10-30T01:32:40.460Z,42.10
2022-10-30T01:32:51.171Z,42.90
2022-10-30T01:33:00.641Z,49.30
2022-10-30T01:33:10.465Z,49.70
2022-10-30T01:33:20.445Z,48.10
2022-10-30T01:33:30.445Z,37.60
2022-10-30T01:33:40.465Z,41.90
2022-10-30T01:33:50.446Z,43.00
2022-10-30T01:34:00.444Z,56.00
2022-10-30T01:34:10.472Z,61.50
2022-10-30T01:34:20.441Z,64.40
2022-10-30T01:34:30.501Z,67.30
2022-10-30T01:34:40.452Z,59.00
2022-10-30T01:34:50.447Z,61.40
2022-10-30T01:35:00.538Z,45.00
2022-10-30T01:35:10.452Z,53.10
2022-10-30T01:35:20.440Z,48.30
2022-10-30T01:35:30.549Z,50.60
2022-10-30T01:35:40.449Z,43.40
2022-10-30T01:35:50.451Z,37.10
2022-10-30T01:36:00.456Z,41.20
2022-10-30T01:36:10.479Z,45.50
2022-10-30T01:36:20.432Z,54.10
2022-10-30T01:36:30.459Z,49.50
2022-10-30T01:36:40.431Z,42.70
2022-10-30T01:36:50.460Z,36.30
2022-10-30T01:37:01.264Z,44.40
2022-10-30T01:37:10.603Z,55.80
2022-10-30T01:37:20.429Z,60.50
2022-10-30T01:37:30.440Z,50.50
2022-10-30T01:37:40.431Z,51.70
2022-10-30T01:37:50.427Z,59.70
2022-10-30T01:38:00.746Z,69.70
2022-10-30T01:38:10.426Z,57.90
2022-10-30T01:38:20.427Z,44.70
2022-10-30T01:38:30.444Z,38.90
2022-10-30T01:38:40.443Z,40.30
2022-10-30T01:38:50.446Z,41.20
2022-10-30T01:39:01.164Z,36.20
2022-10-30T01:39:10.555Z,37.20
2022-10-30T01:39:20.437Z,43.60
2022-10-30T01:39:30.419Z,53.40
2022-10-30T01:39:40.504Z,46.00
2022-10-30T01:39:50.503Z,43.10
2022-10-30T01:40:00.436Z,43.50
2022-10-30T01:40:10.422Z,55.40
2022-10-30T01:40:20.431Z,61.60
2022-10-30T01:40:30.416Z,52.70
2022-10-30T01:40:40.426Z,45.20
2022-10-30T01:40:50.428Z,34.30
2022-10-30T01:41:00.425Z,34.50
2022-10-30T01:41:11.170Z,49.30
2022-10-30T01:41:20.556Z,54.30
2022-10-30T01:41:30.417Z,51.60
2022-10-30T01:41:40.433Z,40.10
2022-10-30T01:41:50.429Z,47.00
2022-10-30T01:42:00.427Z,48.90
2022-10-30T01:42:10.437Z,44.40
2022-10-30T01:42:20.468Z,39.60
2022-10-30T01:42:30.423Z,44.80
2022-10-30T01:42:40.421Z,52.70
2022-10-30T01:42:50.435Z,48.90
2022-10-30T01:43:00.405Z,42.70
2022-10-30T01:43:11.158Z,54.70
2022-10-30T01:43:20.777Z,55.50
2022-10-30T01:43:30.407Z,64.10
2022-10-30T01:43:40.408Z,52.40
2022-10-30T01:43:50.402Z,55.30
2022-10-30T01:44:00.412Z,50.10
2022-10-30T01:44:10.412Z,53.70
2022-10-30T01:44:20.405Z,47.90
2022-10-30T01:44:30.540Z,44.80
2022-10-30T01:44:40.411Z,36.30
2022-10-30T01:44:50.399Z,41.10
2022-10-30T01:45:00.423Z,45.20
2022-10-30T01:45:10.544Z,50.90
2022-10-30T01:45:21.158Z,51.00
2022-10-30T01:45:30.396Z,56.10
2022-10-30T01:45:40.387Z,64.10
2022-10-30T01:45:50.480Z,58.20
2022-10-30T01:46:00.388Z,54.50
2022-10-30T01:46:10.422Z,43.50
2022-10-30T01:46:20.388Z,36.50
2022-10-30T01:46:31.209Z,44.70
2022-10-30T01:46:40.385Z,45.20
2022-10-30T01:46:50.388Z,47.90
2022-10-30T01:47:00.399Z,36.20
2022-10-30T01:47:10.392Z,35.20
2022-10-30T01:47:21.181Z,38.30
2022-10-30T01:47:30.502Z,42.30
2022-10-30T01:47:40.381Z,48.20
2022-10-30T01:47:50.402Z,51.20
2022-10-30T01:48:00.613Z,44.20
2022-10-30T01:48:10.383Z,39.90
2022-10-30T01:48:20.406Z,40.40
2022-10-30T01:48:30.419Z,47.30
2022-10-30T01:48:41.191Z,55.90
2022-10-30T01:48:50.393Z,50.00
2022-10-30T01:49:00.407Z,42.20
2022-10-30T01:49:10.405Z,44.50
2022-10-30T01:49:21.222Z,45.00
2022-10-30T01:49:33.166Z,43.20
2022-10-30T01:49:40.383Z,36.00
2022-10-30T01:49:50.412Z,42.40
2022-10-30T01:50:00.432Z,54.80
2022-10-30T01:50:10.384Z,62.10
2022-10-30T01:50:20.423Z,55.40
2022-10-30T01:50:30.375Z,51.10
2022-10-30T01:50:40.387Z,48.10
2022-10-30T01:50:50.412Z,54.20
2022-10-30T01:51:00.379Z,46.40
2022-10-30T01:51:10.379Z,45.10
2022-10-30T01:51:20.401Z,43.20
2022-10-30T01:51:31.202Z,47.10
2022-10-30T01:51:40.597Z,53.40
2022-10-30T01:51:50.380Z,48.40
2022-10-30T01:52:00.422Z,47.60
2022-10-30T01:52:10.399Z,46.00
2022-10-30T01:52:20.364Z,41.30
2022-10-30T01:52:30.389Z,44.50
2022-10-30T01:52:40.425Z,39.80
2022-10-30T01:52:50.556Z,45.20
2022-10-30T01:53:00.514Z,47.50
2022-10-30T01:53:10.378Z,45.40
2022-10-30T01:53:20.370Z,47.80
2022-10-30T01:53:30.390Z,47.70
2022-10-30T01:53:40.469Z,43.70
2022-10-30T01:53:50.360Z,49.10
2022-10-30T01:54:00.381Z,47.50
2022-10-30T01:54:11.152Z,50.50
2022-10-30T01:54:20.383Z,47.50
2022-10-30T01:54:30.380Z,54.70
2022-10-30T01:54:40.379Z,55.80
2022-10-30T01:54:50.350Z,63.50
2022-10-30T01:55:00.371Z,56.70
2022-10-30T01:55:10.348Z,52.10
2022-10-30T01:55:20.367Z,39.20
2022-10-30T01:55:30.383Z,40.90
2022-10-30T01:55:40.379Z,50.60
2022-10-30T01:55:50.367Z,46.50
2022-10-30T01:56:00.382Z,36.60
2022-10-30T01:56:10.348Z,40.30
2022-10-30T01:56:20.346Z,53.30
2022-10-30T01:56:30.367Z,73.90
2022-10-30T01:56:40.349Z,66.70
2022-10-30T01:56:50.352Z,59.80
2022-10-30T01:57:00.352Z,49.10
2022-10-30T01:57:10.345Z,48.40
2022-10-30T01:57:20.378Z,46.90
2022-10-30T01:57:31.226Z,46.20
2022-10-30T01:57:41.166Z,50.40
2022-10-30T01:57:50.425Z,58.30
2022-10-30T01:58:00.344Z,66.20
2022-10-30T01:58:10.334Z,62.60
2022-10-30T01:58:20.357Z,60.10
2022-10-30T01:58:30.333Z,60.30
2022-10-30T01:58:40.342Z,51.00
2022-10-30T01:58:50.363Z,55.50
2022-10-30T01:59:00.389Z,55.50
2022-10-30T01:59:10.333Z,59.20
2022-10-30T01:59:20.348Z,45.80
2022-10-30T01:59:31.186Z,34.60
2022-10-30T01:59:40.363Z,35.30
2022-10-30T01:59:51.178Z,36.40
2022-10-30T02:00:00.349Z,51.30
2022-10-30T02:00:10.339Z,47.70
2022-10-30T02:00:20.344Z,40.50
2022-10-30T02:00:30.334Z,33.80
2022-10-30T02:00:40.351Z,38.70
2022-10-30T02:00:50.354Z,50.50
2022-10-30T02:01:00.375Z,55.60
2022-10-30T02:01:10.439Z,53.00
2022-10-30T02:01:20.452Z,58.30
2022-10-30T02:01:31.378Z,60.10
2022-10-30T02:01:40.490Z,65.10
2022-10-30T02:01:50.469Z,55.20
2022-10-30T02:02:00.583Z,56.50
2022-10-30T02:02:10.532Z,49.30
2022-10-30T02:02:20.530Z,53.60
2022-10-30T02:02:31.314Z,46.00
2022-10-30T02:02:41.325Z,44.90
2022-10-30T02:02:50.400Z,41.00
2022-10-30T02:03:01.152Z,45.00
2022-10-30T02:03:10.347Z,41.00
2022-10-30T02:03:20.325Z,48.80
2022-10-30T02:03:30.331Z,46.50
2022-10-30T02:03:40.350Z,48.40
2022-10-30T02:03:50.464Z,43.70
2022-10-30T02:04:01.186Z,40.60
2022-10-30T02:04:10.335Z,51.50
2022-10-30T02:04:20.322Z,46.30
2022-10-30T02:04:30.328Z,61.80
2022-10-30T02:04:40.317Z,57.10
2022-10-30T02:04:50.326Z,59.20
2022-10-30T02:05:00.324Z,56.90
2022-10-30T02:05:10.400Z,47.70
2022-10-30T02:05:20.306Z,56.80
2022-10-30T02:05:30.325Z,48.10
2022-10-30T02:05:40.315Z,50.90
2022-10-30T02:05:50.307Z,53.90
2022-10-30T02:06:00.342Z,49.10
2022-10-30T02:06:11.222Z,60.90
2022-10-30T02:06:20.342Z,55.00
2022-10-30T02:06:30.336Z,55.90
2022-10-30T02:06:40.302Z,56.50
2022-10-30T02:06:50.305Z,54.20
2022-10-30T02:07:00.324Z,48.60
2022-10-30T02:07:10.315Z,43.70
2022-10-30T02:07:20.310Z,40.30
2022-10-30T02:07:30.294Z,46.60
2022-10-30T02:07:40.312Z,47.30
2022-10-30T02:07:51.186Z,46.20
2022-10-30T02:08:00.627Z,46.30
2022-10-30T02:08:10.706Z,54.00
2022-10-30T02:08:20.298Z,48.40
2022-10-30T02:08:30.291Z,46.60
2022-10-30T02:08:40.414Z,40.60
2022-10-30T02:08:50.302Z,46.20
2022-10-30T02:09:00.291Z,49.10
2022-10-30T02:09:10.294Z,38.00
2022-10-30T02:09:20.305Z,35.60
2022-10-30T02:09:30.387Z,34.60